EJA157 KMEM-KUCY
Flight info
| Callsign | EJA157 |
|---|---|
| Flight time | 0h 24m |
| Altitude | 15000 |
| Route | CRSON7 CRSON OBION |
| Aircraft | C25C/M-G/C |
Departure
| Time | 2026-04-25 23:01 |
|---|---|
| Airport | Memphis International Airport (KMEM) |
Arrival
| Time | 2026-04-25 23:26 |
|---|---|
| Airport | Everett-Stewart Regional Airport (KUCY) |
| Time | Latitude | Longitude | Altitude | Speed | Heading |
|---|---|---|---|---|---|
| 2026-04-25 22:51 | 35.05434 | -89.98251 | 324 ft | 0 kts | 271° |
| 2026-04-25 22:56 | 35.05434 | -89.98244 | 323 ft | 3 kts | 250° |
| 2026-04-25 22:56 | 35.05441 | -89.98231 | 324 ft | 3 kts | 232° |
| 2026-04-25 22:56 | 35.05452 | -89.98214 | 323 ft | 3 kts | 215° |
| 2026-04-25 22:56 | 35.05466 | -89.98210 | 323 ft | 0 kts | 161° |
| 2026-04-25 22:59 | 35.05462 | -89.98186 | 324 ft | 6 kts | 86° |
| 2026-04-25 22:59 | 35.05467 | -89.98132 | 324 ft | 7 kts | 81° |
| 2026-04-25 22:59 | 35.05475 | -89.98071 | 324 ft | 8 kts | 82° |
| 2026-04-25 23:00 | 35.05483 | -89.97998 | 324 ft | 9 kts | 83° |
| 2026-04-25 23:00 | 35.05485 | -89.97914 | 324 ft | 11 kts | 89° |
| 2026-04-25 23:00 | 35.05480 | -89.97819 | 323 ft | 12 kts | 104° |
| 2026-04-25 23:00 | 35.05453 | -89.97712 | 321 ft | 15 kts | 97° |
| 2026-04-25 23:01 | 35.05394 | -89.97620 | 319 ft | 16 kts | 167° |
| 2026-04-25 23:01 | 35.05059 | -89.97612 | 316 ft | 97 kts | 179° |
| 2026-04-25 23:01 | 35.04116 | -89.97595 | 670 ft | 160 kts | 180° |
| 2026-04-25 23:01 | 35.02896 | -89.97539 | 1581 ft | 193 kts | 178° |
| 2026-04-25 23:02 | 35.01394 | -89.97459 | 2534 ft | 234 kts | 179° |
| 2026-04-25 23:02 | 34.99724 | -89.97392 | 3461 ft | 249 kts | 180° |
| 2026-04-25 23:02 | 34.98044 | -89.97028 | 4389 ft | 245 kts | 160° |
| 2026-04-25 23:02 | 34.96426 | -89.96221 | 4992 ft | 262 kts | 164° |
| 2026-04-25 23:03 | 34.94734 | -89.95315 | 5001 ft | 269 kts | 146° |
| 2026-04-25 23:03 | 34.93494 | -89.93583 | 5006 ft | 273 kts | 126° |
| 2026-04-25 23:03 | 34.92945 | -89.91436 | 5380 ft | 269 kts | 101° |
| 2026-04-25 23:03 | 34.92773 | -89.89110 | 6226 ft | 283 kts | 97° |
| 2026-04-25 23:04 | 34.92668 | -89.86648 | 7116 ft | 296 kts | 94° |
| 2026-04-25 23:04 | 34.92748 | -89.84095 | 8012 ft | 309 kts | 77° |
| 2026-04-25 23:04 | 34.93682 | -89.81702 | 8944 ft | 318 kts | 60° |
| 2026-04-25 23:04 | 34.94767 | -89.79380 | 9883 ft | 300 kts | 59° |
| 2026-04-25 23:05 | 34.95846 | -89.77316 | 10723 ft | 291 kts | 51° |
| 2026-04-25 23:05 | 34.97440 | -89.75804 | 11596 ft | 298 kts | 21° |
| 2026-04-25 23:05 | 34.99496 | -89.75264 | 12511 ft | 311 kts | 356° |
| 2026-04-25 23:05 | 35.01725 | -89.75354 | 13480 ft | 329 kts | 354° |
| 2026-04-25 23:06 | 35.04066 | -89.75499 | 14388 ft | 344 kts | 353° |
| 2026-04-25 23:06 | 35.06499 | -89.75642 | 14998 ft | 356 kts | 354° |
| 2026-04-25 23:06 | 35.08972 | -89.75749 | 15009 ft | 360 kts | 354° |
| 2026-04-25 23:06 | 35.11495 | -89.75844 | 15006 ft | 363 kts | 354° |
| 2026-04-25 23:07 | 35.14030 | -89.75983 | 15010 ft | 365 kts | 353° |
| 2026-04-25 23:07 | 35.16579 | -89.76136 | 15007 ft | 367 kts | 354° |
| 2026-04-25 23:07 | 35.19141 | -89.76281 | 14995 ft | 369 kts | 354° |
| 2026-04-25 23:07 | 35.21716 | -89.76414 | 14994 ft | 370 kts | 354° |
| 2026-04-25 23:08 | 35.24298 | -89.76553 | 14993 ft | 371 kts | 354° |
| 2026-04-25 23:08 | 35.26882 | -89.76697 | 14990 ft | 372 kts | 354° |
| 2026-04-25 23:08 | 35.29446 | -89.76724 | 14983 ft | 376 kts | 3° |
| 2026-04-25 23:08 | 35.31973 | -89.75800 | 14968 ft | 383 kts | 21° |
| 2026-04-25 23:09 | 35.34307 | -89.74201 | 14976 ft | 385 kts | 27° |
| 2026-04-25 23:09 | 35.36600 | -89.72494 | 14981 ft | 385 kts | 29° |
| 2026-04-25 23:09 | 35.38878 | -89.70772 | 14985 ft | 385 kts | 28° |
| 2026-04-25 23:09 | 35.41188 | -89.69091 | 14988 ft | 384 kts | 27° |
| 2026-04-25 23:10 | 35.43491 | -89.67424 | 14990 ft | 384 kts | 27° |
| 2026-04-25 23:10 | 35.45771 | -89.65751 | 14994 ft | 385 kts | 28° |
| 2026-04-25 23:10 | 35.48077 | -89.64046 | 14994 ft | 385 kts | 28° |
| 2026-04-25 23:10 | 35.50374 | -89.62357 | 14996 ft | 384 kts | 28° |
| 2026-04-25 23:11 | 35.52675 | -89.60670 | 15001 ft | 385 kts | 28° |
| 2026-04-25 23:11 | 35.54944 | -89.59002 | 15004 ft | 384 kts | 28° |
| 2026-04-25 23:11 | 35.57238 | -89.57309 | 15003 ft | 384 kts | 28° |
| 2026-04-25 23:11 | 35.59532 | -89.55620 | 15006 ft | 384 kts | 28° |
| 2026-04-25 23:12 | 35.61828 | -89.53929 | 15006 ft | 384 kts | 28° |
| 2026-04-25 23:12 | 35.64121 | -89.52236 | 15006 ft | 384 kts | 28° |
| 2026-04-25 23:12 | 35.66414 | -89.50554 | 15009 ft | 383 kts | 28° |
| 2026-04-25 23:12 | 35.68682 | -89.48828 | 15013 ft | 384 kts | 30° |
| 2026-04-25 23:13 | 35.70878 | -89.47022 | 15012 ft | 384 kts | 31° |
| 2026-04-25 23:13 | 35.73104 | -89.45211 | 14591 ft | 379 kts | 30° |
| 2026-04-25 23:13 | 35.75303 | -89.43473 | 14075 ft | 370 kts | 30° |
| 2026-04-25 23:13 | 35.77459 | -89.41774 | 13548 ft | 363 kts | 30° |
| 2026-04-25 23:14 | 35.79537 | -89.40115 | 12986 ft | 358 kts | 30° |
| 2026-04-25 23:14 | 35.81614 | -89.38448 | 12421 ft | 354 kts | 31° |
| 2026-04-25 23:14 | 35.83677 | -89.36803 | 11867 ft | 351 kts | 30° |
| 2026-04-25 23:14 | 35.85719 | -89.35169 | 11556 ft | 342 kts | 31° |
| 2026-04-25 23:15 | 35.87656 | -89.33622 | 11526 ft | 327 kts | 31° |
| 2026-04-25 23:15 | 35.89531 | -89.32115 | 11514 ft | 315 kts | 31° |
| 2026-04-25 23:15 | 35.91352 | -89.30664 | 11516 ft | 305 kts | 30° |
| 2026-04-25 23:15 | 35.93089 | -89.29268 | 11513 ft | 297 kts | 30° |
| 2026-04-25 23:16 | 35.94806 | -89.27896 | 11513 ft | 291 kts | 30° |
| 2026-04-25 23:16 | 35.96489 | -89.26545 | 11512 ft | 286 kts | 30° |
| 2026-04-25 23:16 | 35.98144 | -89.25216 | 11512 ft | 282 kts | 30° |
| 2026-04-25 23:16 | 35.99784 | -89.23902 | 11513 ft | 278 kts | 30° |
| 2026-04-25 23:17 | 36.01383 | -89.22614 | 11512 ft | 276 kts | 30° |
| 2026-04-25 23:17 | 36.02986 | -89.21330 | 11510 ft | 274 kts | 30° |
| 2026-04-25 23:17 | 36.04582 | -89.20045 | 11511 ft | 272 kts | 30° |
| 2026-04-25 23:17 | 36.06168 | -89.18768 | 11509 ft | 271 kts | 30° |
| 2026-04-25 23:18 | 36.07746 | -89.17502 | 11510 ft | 269 kts | 30° |
| 2026-04-25 23:18 | 36.09293 | -89.16253 | 11509 ft | 268 kts | 30° |
| 2026-04-25 23:18 | 36.10859 | -89.14993 | 11508 ft | 268 kts | 30° |
| 2026-04-25 23:18 | 36.12443 | -89.13717 | 11095 ft | 276 kts | 30° |
| 2026-04-25 23:19 | 36.14057 | -89.12415 | 10429 ft | 277 kts | 31° |
| 2026-04-25 23:19 | 36.15677 | -89.11110 | 9727 ft | 279 kts | 31° |
| 2026-04-25 23:19 | 36.17306 | -89.09792 | 8961 ft | 280 kts | 31° |
| 2026-04-25 23:19 | 36.18940 | -89.08475 | 8214 ft | 280 kts | 31° |
| 2026-04-25 23:20 | 36.20564 | -89.07160 | 7483 ft | 278 kts | 31° |
| 2026-04-25 23:20 | 36.22163 | -89.05869 | 6777 ft | 276 kts | 31° |
| 2026-04-25 23:20 | 36.23777 | -89.04562 | 6051 ft | 275 kts | 31° |
| 2026-04-25 23:20 | 36.25369 | -89.03274 | 5312 ft | 272 kts | 31° |
| 2026-04-25 23:21 | 36.26947 | -89.01999 | 4580 ft | 269 kts | 31° |
| 2026-04-25 23:21 | 36.28504 | -89.00739 | 3811 ft | 266 kts | 30° |
| 2026-04-25 23:21 | 36.30122 | -88.99696 | 2947 ft | 266 kts | 20° |
| 2026-04-25 23:21 | 36.31856 | -88.99189 | 2816 ft | 242 kts | 8° |
| 2026-04-25 23:22 | 36.33471 | -88.98857 | 2722 ft | 223 kts | 1° |
| 2026-04-25 23:22 | 36.34720 | -88.99456 | 2902 ft | 189 kts | 302° |
| 2026-04-25 23:22 | 36.34507 | -89.00979 | 2374 ft | 203 kts | 220° |
| 2026-04-25 23:23 | 36.31965 | -89.02108 | 2172 ft | 175 kts | 188° |
| 2026-04-25 23:23 | 36.30908 | -89.01686 | 1980 ft | 156 kts | 136° |
| 2026-04-25 23:23 | 36.30516 | -89.00539 | 1742 ft | 141 kts | 83° |
| 2026-04-25 23:23 | 36.31015 | -88.99696 | 1669 ft | 117 kts | 30° |
| 2026-04-25 23:24 | 36.31845 | -88.99337 | 1351 ft | 143 kts | 8° |
| 2026-04-25 23:24 | 36.32919 | -88.99238 | 1082 ft | 154 kts | 3° |
| 2026-04-25 23:24 | 36.33925 | -88.99133 | 1075 ft | 140 kts | 5° |
| 2026-04-25 23:24 | 36.34881 | -88.99011 | 867 ft | 130 kts | 6° |
| 2026-04-25 23:25 | 36.35736 | -88.98871 | 648 ft | 119 kts | 6° |
| 2026-04-25 23:25 | 36.36562 | -88.98773 | 509 ft | 119 kts | 8° |
| 2026-04-25 23:25 | 36.37321 | -88.98656 | 344 ft | 99 kts | 7° |
| 2026-04-25 23:25 | 36.37838 | -88.98589 | 334 ft | 56 kts | 6° |
| 2026-04-25 23:26 | 36.38106 | -88.98553 | 328 ft | 30 kts | 6° |
| 2026-04-25 23:26 | 36.38280 | -88.98529 | 324 ft | 19 kts | 7° |
| 2026-04-25 23:26 | 36.38301 | -88.98430 | 323 ft | 10 kts | 97° |
| 2026-04-25 23:26 | 36.38323 | -88.98387 | 323 ft | 6 kts | 11° |
| 2026-04-25 23:27 | 36.38359 | -88.98372 | 322 ft | 5 kts | 69° |
| 2026-04-25 23:27 | 36.38354 | -88.98341 | 322 ft | 2 kts | 82° |
| 2026-04-25 23:27 | 36.38360 | -88.98315 | 322 ft | 0 kts | 79° |